createdAt,value
2023-04-25T00:00:08.680Z,0.00
2023-04-25T00:01:08.622Z,0.00
2023-04-25T00:02:08.731Z,0.00
2023-04-25T00:03:08.758Z,0.00
2023-04-25T00:04:09.477Z,0.00
2023-04-25T00:05:08.680Z,0.00
2023-04-25T00:06:08.583Z,0.00
2023-04-25T00:07:08.547Z,0.00
2023-04-25T00:08:08.546Z,0.00
2023-04-25T00:09:08.572Z,0.00
2023-04-25T00:10:08.561Z,0.00
2023-04-25T00:11:08.513Z,0.00
2023-04-25T00:12:08.500Z,0.00
2023-04-25T00:13:08.514Z,0.00
2023-04-25T00:14:08.468Z,0.00
2023-04-25T00:15:08.481Z,0.00
2023-04-25T00:16:08.507Z,0.00
2023-04-25T00:17:08.454Z,0.00
2023-04-25T00:18:08.442Z,0.00
2023-04-25T00:19:08.579Z,0.00
2023-04-25T00:20:08.432Z,0.00
2023-04-25T00:21:08.415Z,0.00
2023-04-25T00:22:08.414Z,0.00
2023-04-25T00:23:08.384Z,0.00
2023-04-25T00:24:08.419Z,0.00
2023-04-25T00:25:08.359Z,0.00
2023-04-25T00:26:08.371Z,0.00
2023-04-25T00:27:08.392Z,0.00
2023-04-25T00:28:08.348Z,0.00
2023-04-25T00:29:08.314Z,0.00
2023-04-25T00:30:08.333Z,0.00
2023-04-25T00:31:08.352Z,0.00
2023-04-25T00:32:08.342Z,0.00
2023-04-25T00:33:08.597Z,0.00
2023-04-25T00:34:08.254Z,0.00
2023-04-25T00:35:08.578Z,0.00
2023-04-25T00:36:08.248Z,0.00
2023-04-25T00:37:08.213Z,0.00
2023-04-25T00:38:08.213Z,0.00
2023-04-25T00:39:08.208Z,0.00
2023-04-25T00:40:08.194Z,0.00
2023-04-25T00:41:08.179Z,0.00
2023-04-25T00:42:08.154Z,0.00
2023-04-25T00:43:15.162Z,0.00
2023-04-25T00:44:16.298Z,0.00
2023-04-25T00:45:16.439Z,0.00
2023-04-25T00:46:16.717Z,0.00
2023-04-25T00:47:15.614Z,0.00
2023-04-25T00:48:15.124Z,0.00
2023-04-25T00:49:08.101Z,0.00
2023-04-25T00:50:08.108Z,0.00
2023-04-25T00:51:08.342Z,0.00
2023-04-25T00:52:08.090Z,0.00
2023-04-25T00:53:08.036Z,0.00
2023-04-25T00:54:08.035Z,0.00
2023-04-25T00:55:08.046Z,0.00
2023-04-25T00:56:08.026Z,0.00
2023-04-25T00:57:08.014Z,0.00
2023-04-25T00:58:07.999Z,0.00
2023-04-25T00:59:07.971Z,0.00
2023-04-25T01:00:07.989Z,0.00
2023-04-25T01:01:08.060Z,0.00
2023-04-25T01:02:07.978Z,0.00
2023-04-25T01:03:08.175Z,0.00
2023-04-25T01:04:08.049Z,0.00
2023-04-25T01:05:07.919Z,0.00
2023-04-25T01:06:07.892Z,0.00
2023-04-25T01:07:07.896Z,0.00
2023-04-25T01:08:07.898Z,0.00
2023-04-25T01:09:07.889Z,0.00
2023-04-25T01:10:07.867Z,0.00
2023-04-25T01:11:07.853Z,0.00
2023-04-25T01:12:08.108Z,0.00
2023-04-25T01:13:07.811Z,0.00
2023-04-25T01:14:07.815Z,0.00
2023-04-25T01:15:07.813Z,0.00
2023-04-25T01:16:07.823Z,0.00
2023-04-25T01:17:07.932Z,0.00
2023-04-25T01:18:07.795Z,0.00
2023-04-25T01:19:07.762Z,0.00
2023-04-25T01:20:07.737Z,0.00
2023-04-25T01:21:07.726Z,0.00
2023-04-25T01:22:07.724Z,0.00
2023-04-25T01:23:07.717Z,0.00
2023-04-25T01:24:07.703Z,0.00
2023-04-25T01:25:07.717Z,0.00
2023-04-25T01:26:07.717Z,0.00
2023-04-25T01:27:07.657Z,0.00
2023-04-25T01:28:07.633Z,0.00
2023-04-25T01:29:07.639Z,0.00
2023-04-25T01:30:07.670Z,0.00
2023-04-25T01:31:07.621Z,0.00
2023-04-25T01:32:07.719Z,0.00
2023-04-25T01:33:07.599Z,0.00
2023-04-25T01:34:07.575Z,0.00
2023-04-25T01:35:07.568Z,0.00
2023-04-25T01:36:07.580Z,0.00
2023-04-25T01:37:07.539Z,0.00
2023-04-25T01:38:07.521Z,0.00
2023-04-25T01:39:07.508Z,0.00
2023-04-25T01:40:07.785Z,0.00
2023-04-25T01:41:07.548Z,0.00
2023-04-25T01:42:07.472Z,0.00
2023-04-25T01:43:07.489Z,0.00
2023-04-25T01:44:07.486Z,0.00
2023-04-25T01:45:07.479Z,0.00
2023-04-25T01:46:07.493Z,0.00
2023-04-25T01:47:07.444Z,0.00
2023-04-25T01:48:07.469Z,0.00
2023-04-25T01:49:07.401Z,0.00
2023-04-25T01:50:07.422Z,0.00
2023-04-25T01:51:07.376Z,0.00
2023-04-25T01:52:07.358Z,0.00
2023-04-25T01:53:07.349Z,0.00
2023-04-25T01:54:07.343Z,0.00
2023-04-25T01:55:07.351Z,0.00
2023-04-25T01:56:07.340Z,0.00
2023-04-25T01:57:07.301Z,0.00
2023-04-25T01:58:07.315Z,0.00
2023-04-25T01:59:07.292Z,0.00
2023-04-25T02:00:07.290Z,0.00
2023-04-25T02:01:07.303Z,0.00
2023-04-25T02:02:07.274Z,0.00
2023-04-25T02:03:07.469Z,0.00
2023-04-25T02:04:07.526Z,0.00
2023-04-25T02:05:07.249Z,0.00
2023-04-25T02:06:07.210Z,0.00
2023-04-25T02:07:07.180Z,0.00
2023-04-25T02:08:07.193Z,0.00
2023-04-25T02:09:07.160Z,0.00
2023-04-25T02:10:07.183Z,0.00
2023-04-25T02:11:07.171Z,0.00
2023-04-25T02:12:07.131Z,0.00
2023-04-25T02:13:07.133Z,0.00
2023-04-25T02:14:07.142Z,0.00
2023-04-25T02:15:07.135Z,0.00
2023-04-25T02:16:07.286Z,0.00
2023-04-25T02:17:07.175Z,0.00
2023-04-25T02:18:07.112Z,0.00
2023-04-25T02:19:07.073Z,0.00
2023-04-25T02:20:07.073Z,0.00
2023-04-25T02:21:07.085Z,0.00
2023-04-25T02:22:07.301Z,0.00
2023-04-25T02:23:07.042Z,0.00
2023-04-25T02:24:07.002Z,0.00
2023-04-25T02:25:07.071Z,0.00
2023-04-25T02:26:06.996Z,0.00
2023-04-25T02:27:06.998Z,0.00
2023-04-25T02:28:06.966Z,0.00
2023-04-25T02:29:06.950Z,0.00
2023-04-25T02:30:06.970Z,0.00
2023-04-25T02:31:07.008Z,0.00
2023-04-25T02:32:13.930Z,0.00
2023-04-25T02:33:13.921Z,0.00
2023-04-25T02:34:15.268Z,0.00
2023-04-25T02:35:13.912Z,0.00
2023-04-25T02:36:06.869Z,0.00
2023-04-25T02:37:06.868Z,0.00
2023-04-25T02:38:06.868Z,0.00
2023-04-25T02:39:06.832Z,0.00
2023-04-25T02:40:06.860Z,0.00
2023-04-25T02:41:06.839Z,0.00
2023-04-25T02:42:06.810Z,0.00
2023-04-25T02:43:06.799Z,0.00
2023-04-25T02:44:06.767Z,0.00
2023-04-25T02:45:06.808Z,0.00
2023-04-25T02:46:06.783Z,0.00
2023-04-25T02:47:06.803Z,0.00
2023-04-25T02:48:06.796Z,0.00
2023-04-25T02:49:06.727Z,0.00
2023-04-25T02:50:06.721Z,0.00
2023-04-25T02:51:06.730Z,0.00
2023-04-25T02:52:06.680Z,0.00
2023-04-25T02:53:06.676Z,0.00
2023-04-25T02:54:09.487Z,0.00
2023-04-25T02:55:06.660Z,0.00
2023-04-25T02:56:06.913Z,0.00
2023-04-25T02:57:06.630Z,0.00
2023-04-25T02:58:06.620Z,0.00
2023-04-25T02:59:06.582Z,0.00
2023-04-25T03:00:06.600Z,0.00
2023-04-25T03:01:09.375Z,0.00
2023-04-25T03:02:06.563Z,0.00
2023-04-25T03:03:06.635Z,0.00
2023-04-25T03:04:06.585Z,0.00
2023-04-25T03:05:06.559Z,0.00
2023-04-25T03:06:06.552Z,0.00
2023-04-25T03:07:06.515Z,0.00
2023-04-25T03:08:06.528Z,0.00
2023-04-25T03:09:06.484Z,0.00
2023-04-25T03:10:06.497Z,0.00
2023-04-25T03:11:06.500Z,0.00
2023-04-25T03:12:06.514Z,0.00
2023-04-25T03:13:06.446Z,0.00
2023-04-25T03:14:06.463Z,0.00
2023-04-25T03:15:06.452Z,0.00
2023-04-25T03:16:06.474Z,0.00
2023-04-25T03:17:06.405Z,0.00
2023-04-25T03:18:06.443Z,0.00
2023-04-25T03:19:06.371Z,0.00
2023-04-25T03:20:06.378Z,0.00
2023-04-25T03:21:06.411Z,0.00
2023-04-25T03:22:06.357Z,0.00
2023-04-25T03:23:06.338Z,0.00
2023-04-25T03:24:06.328Z,0.00
2023-04-25T03:25:06.358Z,0.00
2023-04-25T03:26:06.297Z,0.00
2023-04-25T03:27:06.288Z,0.00
2023-04-25T03:28:06.296Z,0.00
2023-04-25T03:29:06.285Z,0.00
2023-04-25T03:30:06.278Z,0.00
2023-04-25T03:31:06.252Z,0.00
2023-04-25T03:32:06.272Z,0.00
2023-04-25T03:33:06.266Z,0.00
2023-04-25T03:34:06.214Z,0.00
2023-04-25T03:35:06.204Z,0.00
2023-04-25T03:36:06.195Z,0.00
2023-04-25T03:37:06.184Z,0.00
2023-04-25T03:38:06.170Z,0.00
2023-04-25T03:39:06.162Z,0.00
2023-04-25T03:40:06.178Z,0.00
2023-04-25T03:41:06.167Z,0.00
2023-04-25T03:42:06.126Z,0.00
2023-04-25T03:43:06.109Z,0.00
2023-04-25T03:44:06.100Z,0.00
2023-04-25T03:45:06.117Z,0.00
2023-04-25T03:46:06.240Z,0.00
2023-04-25T03:47:06.096Z,0.00
2023-04-25T03:48:06.098Z,0.00
2023-04-25T03:49:06.057Z,0.00
2023-04-25T03:50:06.056Z,0.00
2023-04-25T03:51:06.027Z,0.00
2023-04-25T03:52:06.024Z,0.00
2023-04-25T03:53:06.031Z,0.00
2023-04-25T03:54:05.984Z,0.00
2023-04-25T03:55:06.016Z,0.00
2023-04-25T03:56:05.984Z,0.00
2023-04-25T03:57:05.964Z,0.00
2023-04-25T03:58:05.943Z,0.00
2023-04-25T03:59:05.939Z,0.00
2023-04-25T04:00:05.956Z,0.00
2023-04-25T04:01:05.912Z,0.00
2023-04-25T04:02:05.902Z,0.00
2023-04-25T04:03:05.911Z,0.00
2023-04-25T04:04:06.090Z,0.00
2023-04-25T04:05:06.032Z,0.00
2023-04-25T04:06:05.847Z,0.00
2023-04-25T04:07:05.846Z,0.00
2023-04-25T04:08:05.833Z,0.00
2023-04-25T04:09:05.822Z,0.00
2023-04-25T04:10:05.847Z,0.00
2023-04-25T04:11:05.781Z,0.00
2023-04-25T04:12:05.792Z,0.00
2023-04-25T04:13:05.792Z,0.00
2023-04-25T04:14:05.763Z,0.00
2023-04-25T04:15:05.757Z,0.00
2023-04-25T04:16:05.788Z,0.00
2023-04-25T04:17:05.736Z,0.00
2023-04-25T04:18:13.115Z,0.00
2023-04-25T04:19:13.143Z,0.00
2023-04-25T04:20:13.734Z,0.00
2023-04-25T04:21:13.039Z,0.00
2023-04-25T04:22:13.028Z,0.00
2023-04-25T04:23:05.642Z,0.00
2023-04-25T04:24:05.649Z,0.00
2023-04-25T04:25:05.649Z,0.00
2023-04-25T04:26:05.669Z,0.00
2023-04-25T04:27:05.637Z,0.00
2023-04-25T04:28:05.599Z,0.00
2023-04-25T04:29:05.622Z,0.00
2023-04-25T04:30:05.612Z,0.00
2023-04-25T04:31:05.671Z,0.00
2023-04-25T04:32:05.596Z,0.00
2023-04-25T04:33:05.607Z,0.00
2023-04-25T04:34:05.568Z,0.00
2023-04-25T04:35:05.544Z,0.00
2023-04-25T04:36:05.549Z,0.00
2023-04-25T04:37:05.497Z,0.00
2023-04-25T04:38:05.491Z,0.00
2023-04-25T04:39:05.484Z,0.00
2023-04-25T04:40:05.511Z,0.00
2023-04-25T04:41:05.450Z,0.00
2023-04-25T04:42:05.443Z,0.00
2023-04-25T04:43:05.448Z,0.00
2023-04-25T04:44:06.509Z,0.00
2023-04-25T04:45:05.416Z,0.00
2023-04-25T04:46:05.484Z,0.00
2023-04-25T04:47:05.456Z,0.00
2023-04-25T04:48:05.411Z,0.00
2023-04-25T04:49:05.355Z,0.00
2023-04-25T04:50:06.190Z,0.00
2023-04-25T04:51:05.655Z,0.00
2023-04-25T04:52:05.320Z,0.00
2023-04-25T04:53:05.334Z,0.00
2023-04-25T04:54:05.323Z,0.00
2023-04-25T04:55:05.329Z,0.00
2023-04-25T04:56:05.286Z,0.00
2023-04-25T04:57:05.282Z,0.00
2023-04-25T04:58:05.257Z,0.00
2023-04-25T04:59:05.279Z,0.00
2023-04-25T05:00:05.245Z,0.00
2023-04-25T05:01:05.267Z,0.00
2023-04-25T05:02:05.233Z,0.00
2023-04-25T05:03:05.390Z,0.00
2023-04-25T05:04:05.322Z,0.00
2023-04-25T05:05:05.209Z,0.00
2023-04-25T05:06:05.189Z,0.00
2023-04-25T05:07:05.181Z,0.00
2023-04-25T05:08:05.137Z,0.00
2023-04-25T05:09:05.208Z,0.00
2023-04-25T05:10:05.103Z,0.00
2023-04-25T05:11:05.092Z,0.00
2023-04-25T05:12:05.100Z,0.00
2023-04-25T05:13:05.107Z,0.00
2023-04-25T05:14:05.098Z,0.00
2023-04-25T05:15:05.067Z,0.00
2023-04-25T05:16:05.074Z,0.00
2023-04-25T05:17:05.048Z,0.00
2023-04-25T05:18:05.189Z,0.00
2023-04-25T05:19:05.056Z,0.00
2023-04-25T05:20:05.037Z,0.00
2023-04-25T05:21:05.013Z,0.00
2023-04-25T05:22:04.990Z,0.00
2023-04-25T05:23:04.988Z,0.00
2023-04-25T05:24:04.978Z,0.00
2023-04-25T05:25:04.963Z,0.00
2023-04-25T05:26:04.945Z,0.00
2023-04-25T05:27:04.962Z,0.00
2023-04-25T05:28:04.946Z,0.00
2023-04-25T05:29:04.941Z,0.00
2023-04-25T05:30:04.926Z,0.00
2023-04-25T05:31:04.898Z,0.00
2023-04-25T05:32:04.912Z,0.00
2023-04-25T05:33:04.901Z,0.00
2023-04-25T05:34:04.836Z,0.00
2023-04-25T05:35:04.887Z,0.00
2023-04-25T05:36:04.878Z,0.00
2023-04-25T05:37:04.796Z,0.00
2023-04-25T05:38:04.821Z,0.00
2023-04-25T05:39:04.774Z,0.00
2023-04-25T05:40:04.816Z,0.00
2023-04-25T05:41:04.790Z,0.00
2023-04-25T05:42:04.768Z,0.00
2023-04-25T05:43:04.740Z,0.00
2023-04-25T05:44:04.740Z,0.00
2023-04-25T05:45:04.744Z,0.00
2023-04-25T05:46:04.785Z,0.00
2023-04-25T05:47:04.684Z,0.00
2023-04-25T05:48:04.740Z,0.00
2023-04-25T05:49:04.687Z,0.00
2023-04-25T05:50:04.667Z,0.00
2023-04-25T05:51:04.646Z,0.00
2023-04-25T05:52:04.635Z,0.00
2023-04-25T05:53:04.642Z,0.00
2023-04-25T05:54:04.606Z,0.00
2023-04-25T05:55:04.611Z,0.00
2023-04-25T05:56:04.588Z,0.00
2023-04-25T05:57:04.599Z,0.00
2023-04-25T05:58:04.583Z,0.00
2023-04-25T05:59:04.599Z,0.00
2023-04-25T06:00:04.545Z,0.00
2023-04-25T06:01:04.511Z,0.00
2023-04-25T06:02:04.673Z,0.00
2023-04-25T06:03:04.674Z,0.00
2023-04-25T06:04:04.970Z,0.00
2023-04-25T06:05:04.753Z,0.00
2023-04-25T06:06:13.517Z,0.00
2023-04-25T06:07:11.467Z,0.00
2023-04-25T06:08:12.453Z,0.00
2023-04-25T06:09:14.390Z,0.00
2023-04-25T06:10:12.956Z,0.00
2023-04-25T06:11:04.425Z,0.00
2023-04-25T06:12:04.412Z,0.00
2023-04-25T06:13:04.389Z,0.00
2023-04-25T06:14:04.402Z,0.00
2023-04-25T06:15:08.208Z,0.00
2023-04-25T06:16:05.390Z,0.00
2023-04-25T06:17:04.391Z,0.00
2023-04-25T06:18:04.357Z,0.00
2023-04-25T06:19:04.339Z,0.00
2023-04-25T06:20:06.431Z,0.00
2023-04-25T06:21:04.291Z,0.00
2023-04-25T06:22:04.358Z,0.00
2023-04-25T06:23:04.285Z,0.00
2023-04-25T06:24:04.268Z,0.00
2023-04-25T06:25:05.257Z,0.00
2023-04-25T06:26:04.235Z,0.00
2023-04-25T06:27:04.242Z,0.00
2023-04-25T06:28:04.234Z,0.00
2023-04-25T06:29:04.511Z,0.00
2023-04-25T06:30:04.474Z,0.00
2023-04-25T06:31:04.243Z,0.00
2023-04-25T06:32:04.192Z,0.00
2023-04-25T06:33:04.176Z,0.00
2023-04-25T06:34:04.164Z,0.00
2023-04-25T06:35:04.148Z,0.00
2023-04-25T06:36:04.152Z,0.00
2023-04-25T06:37:04.133Z,0.00
2023-04-25T06:38:04.108Z,0.00
2023-04-25T06:39:04.155Z,0.00
2023-04-25T06:40:04.151Z,0.00
2023-04-25T06:41:04.083Z,0.00
2023-04-25T06:42:04.075Z,0.00
2023-04-25T06:43:04.053Z,0.00
2023-04-25T06:44:04.311Z,0.00
2023-04-25T06:45:04.028Z,0.00
2023-04-25T06:46:04.027Z,0.00
2023-04-25T06:47:04.046Z,0.00
2023-04-25T06:48:04.016Z,0.00
2023-04-25T06:49:04.015Z,0.00
2023-04-25T06:50:04.067Z,0.00
2023-04-25T06:51:04.000Z,0.00
2023-04-25T06:52:03.943Z,0.00
2023-04-25T06:53:03.959Z,0.00
2023-04-25T06:54:04.005Z,0.00
2023-04-25T06:55:03.917Z,0.00
2023-04-25T06:56:03.909Z,0.00
2023-04-25T06:57:03.909Z,0.00
2023-04-25T06:58:03.911Z,0.00
2023-04-25T06:59:03.883Z,0.00
2023-04-25T07:00:03.878Z,0.00
2023-04-25T07:01:03.898Z,0.00
2023-04-25T07:02:03.849Z,0.00
2023-04-25T07:03:03.965Z,0.00
2023-04-25T07:04:04.058Z,0.00
2023-04-25T07:05:03.824Z,0.00
2023-04-25T07:06:03.831Z,0.00
2023-04-25T07:07:03.806Z,0.00
2023-04-25T07:08:03.790Z,0.00
2023-04-25T07:09:03.781Z,0.00
2023-04-25T07:10:03.788Z,0.00
2023-04-25T07:11:03.765Z,0.00
2023-04-25T07:12:03.840Z,0.00
2023-04-25T07:13:03.746Z,0.00
2023-04-25T07:14:03.744Z,0.00
2023-04-25T07:15:03.743Z,0.00
2023-04-25T07:16:03.714Z,0.00
2023-04-25T07:17:03.789Z,0.00
2023-04-25T07:18:03.780Z,0.00
2023-04-25T07:19:03.646Z,0.00
2023-04-25T07:20:03.679Z,0.00
2023-04-25T07:21:03.941Z,0.00
2023-04-25T07:22:03.628Z,0.00
2023-04-25T07:23:03.616Z,0.00
2023-04-25T07:24:03.890Z,0.00
2023-04-25T07:25:03.616Z,0.00
2023-04-25T07:26:03.593Z,0.00
2023-04-25T07:27:03.584Z,0.00
2023-04-25T07:28:03.598Z,0.00
2023-04-25T07:29:03.551Z,0.00
2023-04-25T07:30:03.823Z,0.00
2023-04-25T07:31:03.549Z,0.00
2023-04-25T07:32:03.643Z,0.00
2023-04-25T07:33:03.588Z,0.00
2023-04-25T07:34:03.519Z,0.00
2023-04-25T07:35:03.527Z,0.00
2023-04-25T07:36:03.483Z,0.00
2023-04-25T07:37:03.464Z,0.00
2023-04-25T07:38:03.470Z,0.00
2023-04-25T07:39:03.450Z,0.00
2023-04-25T07:40:03.472Z,0.00
2023-04-25T07:41:03.468Z,0.00
2023-04-25T07:42:03.492Z,0.00
2023-04-25T07:43:03.433Z,0.00
2023-04-25T07:44:03.398Z,0.00
2023-04-25T07:45:03.388Z,0.00
2023-04-25T07:46:03.581Z,0.00
2023-04-25T07:47:04.465Z,0.00
2023-04-25T07:48:03.365Z,0.00
2023-04-25T07:49:03.331Z,0.00
2023-04-25T07:50:03.305Z,0.00
2023-04-25T07:51:10.821Z,0.00
2023-04-25T07:52:10.313Z,0.00
2023-04-25T07:53:03.268Z,0.00
2023-04-25T07:54:11.297Z,0.00
2023-04-25T07:55:11.909Z,0.00
2023-04-25T07:56:10.636Z,0.00
2023-04-25T07:57:10.261Z,0.00
2023-04-25T07:58:03.237Z,0.00
2023-04-25T07:59:03.227Z,0.00
2023-04-25T08:00:03.245Z,0.00
2023-04-25T08:01:03.215Z,0.00
2023-04-25T08:02:03.184Z,0.00
2023-04-25T08:03:03.365Z,0.00
2023-04-25T08:04:03.400Z,0.00
2023-04-25T08:05:03.325Z,0.00
2023-04-25T08:06:05.781Z,0.00
2023-04-25T08:07:03.156Z,0.00
2023-04-25T08:08:03.156Z,0.00
2023-04-25T08:09:03.120Z,0.00
2023-04-25T08:10:03.116Z,0.00
2023-04-25T08:11:03.113Z,0.00
2023-04-25T08:12:03.087Z,0.00
2023-04-25T08:13:03.067Z,0.00
2023-04-25T08:14:03.081Z,0.00
2023-04-25T08:15:03.042Z,0.00
2023-04-25T08:16:03.081Z,0.00
2023-04-25T08:17:03.027Z,0.00
2023-04-25T08:18:03.039Z,0.00
2023-04-25T08:19:03.007Z,0.00
2023-04-25T08:20:03.015Z,0.00
2023-04-25T08:21:02.980Z,0.00
2023-04-25T08:22:02.982Z,0.00
2023-04-25T08:23:02.978Z,0.00
2023-04-25T08:24:02.959Z,0.00
2023-04-25T08:25:02.950Z,0.00
2023-04-25T08:26:02.930Z,0.00
2023-04-25T08:27:02.904Z,0.00
2023-04-25T08:28:02.906Z,0.00
2023-04-25T08:29:02.897Z,0.00
2023-04-25T08:30:02.902Z,0.00
2023-04-25T08:31:02.919Z,0.00
2023-04-25T08:32:02.894Z,0.00
2023-04-25T08:33:03.905Z,0.00
2023-04-25T08:34:02.828Z,0.00
2023-04-25T08:35:02.826Z,0.00
2023-04-25T08:36:03.948Z,0.00
2023-04-25T08:37:02.785Z,0.00
2023-04-25T08:38:02.754Z,0.00
2023-04-25T08:39:02.766Z,0.00
2023-04-25T08:40:02.786Z,0.00
2023-04-25T08:41:02.769Z,0.00
2023-04-25T08:42:02.730Z,0.00
2023-04-25T08:43:02.731Z,0.00
2023-04-25T08:44:02.720Z,0.00
2023-04-25T08:45:04.510Z,0.00
2023-04-25T08:46:02.754Z,0.00
2023-04-25T08:47:02.691Z,0.00
2023-04-25T08:48:02.680Z,0.00
2023-04-25T08:49:03.765Z,0.00
2023-04-25T08:50:02.630Z,0.00
2023-04-25T08:51:02.637Z,0.00
2023-04-25T08:52:02.597Z,0.00
2023-04-25T08:53:02.629Z,0.00
2023-04-25T08:54:09.007Z,0.00
2023-04-25T08:55:03.594Z,0.00
2023-04-25T08:56:02.588Z,0.00
2023-04-25T08:57:02.559Z,0.00
2023-04-25T08:58:02.549Z,0.00
2023-04-25T08:59:02.580Z,0.00
2023-04-25T09:00:05.284Z,0.00
2023-04-25T09:01:02.525Z,0.00
2023-04-25T09:02:02.543Z,0.00
2023-04-25T09:03:02.766Z,0.00
2023-04-25T09:04:02.604Z,0.00
2023-04-25T09:05:02.461Z,0.00
2023-04-25T09:06:02.443Z,0.00
2023-04-25T09:07:02.451Z,0.00
2023-04-25T09:08:02.427Z,0.00
2023-04-25T09:09:02.420Z,0.00
2023-04-25T09:10:02.435Z,0.00
2023-04-25T09:11:02.379Z,0.00
2023-04-25T09:12:02.510Z,0.00
2023-04-25T09:13:02.359Z,0.00
2023-04-25T09:14:02.609Z,0.00
2023-04-25T09:15:02.328Z,0.00
2023-04-25T09:16:02.356Z,0.00
2023-04-25T09:17:02.454Z,0.00
2023-04-25T09:18:02.408Z,0.00
2023-04-25T09:19:02.319Z,0.00
2023-04-25T09:20:02.283Z,0.00
2023-04-25T09:21:07.515Z,0.00
2023-04-25T09:22:06.366Z,0.00
2023-04-25T09:23:02.362Z,0.00
2023-04-25T09:24:02.255Z,0.00
2023-04-25T09:25:02.293Z,0.00
2023-04-25T09:26:02.259Z,0.00
2023-04-25T09:27:02.315Z,0.00
2023-04-25T09:28:02.302Z,0.00
2023-04-25T09:29:02.349Z,0.00
2023-04-25T09:30:02.197Z,0.00
2023-04-25T09:31:04.259Z,0.00
2023-04-25T09:32:02.331Z,0.00
2023-04-25T09:33:02.238Z,0.00
2023-04-25T09:34:02.491Z,0.00
2023-04-25T09:35:02.194Z,0.00
2023-04-25T09:36:02.205Z,0.00
2023-04-25T09:37:02.232Z,0.00
2023-04-25T09:38:02.257Z,0.00
2023-04-25T09:39:02.310Z,0.00
2023-04-25T09:40:03.924Z,0.00
2023-04-25T09:41:09.524Z,0.00
2023-04-25T09:42:10.176Z,0.00
2023-04-25T09:43:10.088Z,0.00
2023-04-25T09:44:02.623Z,0.00
2023-04-25T09:45:02.015Z,0.00
2023-04-25T09:46:02.063Z,0.00
2023-04-25T09:47:02.008Z,0.00
2023-04-25T09:48:02.013Z,0.00
2023-04-25T09:49:02.778Z,0.00
2023-04-25T09:50:01.982Z,0.00
2023-04-25T09:51:01.968Z,0.00
2023-04-25T09:52:01.931Z,0.00
2023-04-25T09:53:01.926Z,0.00
2023-04-25T09:54:01.918Z,0.00
2023-04-25T09:55:03.662Z,0.00
2023-04-25T09:56:01.872Z,0.00
2023-04-25T09:57:09.112Z,0.00
2023-04-25T09:58:01.894Z,0.00
2023-04-25T09:59:01.852Z,0.00
2023-04-25T10:00:01.861Z,0.00
2023-04-25T10:01:01.893Z,0.00
2023-04-25T10:02:01.807Z,0.00
2023-04-25T10:03:01.989Z,0.00
2023-04-25T10:04:02.130Z,0.00
2023-04-25T10:05:01.868Z,0.00
2023-04-25T10:06:01.772Z,0.00
2023-04-25T10:07:01.767Z,0.00
2023-04-25T10:08:01.738Z,0.00
2023-04-25T10:09:01.761Z,0.00
2023-04-25T10:10:01.801Z,0.00
2023-04-25T10:11:01.721Z,0.00
2023-04-25T10:12:01.725Z,0.00
2023-04-25T10:13:01.698Z,0.00
2023-04-25T10:14:01.694Z,0.00
2023-04-25T10:15:01.721Z,0.00
2023-04-25T10:16:06.425Z,0.00
2023-04-25T10:17:01.649Z,0.00
2023-04-25T10:18:01.754Z,0.00
2023-04-25T10:19:01.635Z,0.00
2023-04-25T10:20:01.969Z,0.00
2023-04-25T10:21:02.005Z,0.00
2023-04-25T10:22:01.908Z,0.00
2023-04-25T10:23:01.614Z,0.00
2023-04-25T10:24:01.585Z,0.00
2023-04-25T10:25:06.627Z,0.00
2023-04-25T10:26:15.024Z,0.00
2023-04-25T10:27:01.571Z,0.00
2023-04-25T10:28:01.532Z,0.00
2023-04-25T10:29:01.523Z,0.00
2023-04-25T10:30:01.565Z,0.00
2023-04-25T10:31:01.683Z,0.00
2023-04-25T10:32:01.551Z,0.00
2023-04-25T10:33:02.042Z,0.00
2023-04-25T10:34:03.551Z,0.00
2023-04-25T10:35:01.591Z,0.00
2023-04-25T10:36:01.546Z,0.00
2023-04-25T10:37:01.513Z,0.00
2023-04-25T10:38:02.364Z,0.00
2023-04-25T10:39:01.569Z,0.00
2023-04-25T10:40:01.533Z,0.00
2023-04-25T10:41:01.498Z,0.00
2023-04-25T10:42:01.506Z,0.00
2023-04-25T10:43:01.389Z,0.00
2023-04-25T10:44:01.677Z,0.00
2023-04-25T10:45:01.377Z,0.00
2023-04-25T10:46:01.364Z,0.00
2023-04-25T10:47:01.561Z,0.00
2023-04-25T10:48:01.725Z,0.00
2023-04-25T10:49:01.704Z,0.00
2023-04-25T10:50:04.125Z,0.00
2023-04-25T10:51:01.289Z,0.00
2023-04-25T10:52:01.584Z,0.00
2023-04-25T10:53:01.285Z,0.00
2023-04-25T10:54:02.487Z,0.00
2023-04-25T10:55:02.249Z,0.00
2023-04-25T10:56:01.301Z,0.00
2023-04-25T10:57:01.279Z,0.00
2023-04-25T10:58:01.211Z,0.00
2023-04-25T10:59:01.212Z,0.00
2023-04-25T11:00:01.571Z,0.00
2023-04-25T11:01:02.335Z,0.00
2023-04-25T11:02:01.271Z,0.00
2023-04-25T11:03:01.605Z,0.00
2023-04-25T11:04:01.375Z,0.00
2023-04-25T11:05:01.546Z,0.00
2023-04-25T11:06:01.242Z,0.00
2023-04-25T11:07:06.339Z,0.00
2023-04-25T11:08:07.694Z,0.00
2023-04-25T11:09:02.202Z,0.00
2023-04-25T11:10:06.004Z,0.00
2023-04-25T11:11:01.476Z,0.00
2023-04-25T11:12:01.047Z,0.00
2023-04-25T11:13:01.091Z,0.00
2023-04-25T11:14:01.022Z,0.00
2023-04-25T11:15:01.015Z,0.00
2023-04-25T11:16:12.090Z,0.00
2023-04-25T11:17:02.078Z,0.00
2023-04-25T11:18:01.038Z,0.00
2023-04-25T11:19:00.980Z,0.00
2023-04-25T11:20:05.716Z,0.00
2023-04-25T11:21:01.296Z,0.00
2023-04-25T11:22:01.025Z,0.00
2023-04-25T11:24:00.921Z,0.00
2023-04-25T11:25:00.890Z,0.00
2023-04-25T11:26:01.144Z,0.00
2023-04-25T11:27:09.598Z,0.00
2023-04-25T11:28:08.525Z,0.00
2023-04-25T11:29:14.341Z,0.00
2023-04-25T11:30:08.386Z,0.00
2023-04-25T11:31:08.325Z,0.00
2023-04-25T11:32:08.439Z,0.00
2023-04-25T11:34:20.538Z,703.12
2023-04-25T11:35:18.887Z,787.50
2023-04-25T11:36:18.823Z,686.25
2023-04-25T11:37:18.807Z,691.88
2023-04-25T11:38:18.880Z,736.88
2023-04-25T11:39:18.829Z,776.25
2023-04-25T11:40:18.724Z,630.00
2023-04-25T11:41:18.864Z,618.75
2023-04-25T11:42:18.776Z,506.25
2023-04-25T11:43:21.412Z,388.12
2023-04-25T11:44:23.709Z,343.12
2023-04-25T11:45:24.599Z,303.75
2023-04-25T11:46:27.355Z,270.00
2023-04-25T11:47:22.158Z,241.88
2023-04-25T11:48:26.090Z,213.75
2023-04-25T11:49:21.863Z,191.25
2023-04-25T11:50:18.723Z,180.00
2023-04-25T11:51:19.963Z,174.38
2023-04-25T11:52:18.758Z,163.12
2023-04-25T11:53:24.916Z,151.88
2023-04-25T11:54:22.664Z,146.25
2023-04-25T11:55:21.142Z,146.25
2023-04-25T11:56:23.884Z,140.62
2023-04-25T11:57:19.606Z,140.62
2023-04-25T12:01:03.249Z,151.88
2023-04-25T12:02:11.250Z,157.50
2023-04-25T12:03:03.383Z,157.50
2023-04-25T12:04:01.231Z,163.12
2023-04-25T12:05:07.868Z,168.75
2023-04-25T12:06:03.097Z,174.38
2023-04-25T12:07:01.463Z,185.62
2023-04-25T12:08:05.292Z,202.50
2023-04-25T12:09:01.066Z,225.00
2023-04-25T12:10:10.268Z,253.12
2023-04-25T12:11:02.469Z,275.62
2023-04-25T12:13:20.140Z,337.50
2023-04-25T12:14:12.003Z,371.25
2023-04-25T12:15:11.997Z,410.62
2023-04-25T12:16:12.021Z,444.38
2023-04-25T12:17:14.612Z,472.50
2023-04-25T12:18:12.159Z,506.25
2023-04-25T12:19:12.007Z,528.75
2023-04-25T12:20:12.023Z,551.25
2023-04-25T12:21:12.048Z,579.38
2023-04-25T12:22:16.970Z,703.12
2023-04-25T12:23:12.364Z,585.00
2023-04-25T12:24:14.738Z,579.38
2023-04-25T12:25:11.962Z,579.38
2023-04-25T12:26:16.532Z,601.88
2023-04-25T12:27:20.465Z,624.38
2023-04-25T12:28:11.944Z,658.12
2023-04-25T12:29:11.922Z,686.25
2023-04-25T12:30:12.242Z,703.12
2023-04-25T12:31:11.783Z,708.75
2023-04-25T12:32:11.840Z,697.50
2023-04-25T12:33:11.800Z,686.25
2023-04-25T12:34:12.037Z,675.00
2023-04-25T12:35:14.353Z,646.88
2023-04-25T12:36:11.684Z,630.00
2023-04-25T12:37:11.716Z,613.12
2023-04-25T12:38:15.728Z,596.25
2023-04-25T12:39:22.124Z,573.75
2023-04-25T12:40:22.477Z,551.25
2023-04-25T12:41:11.614Z,523.12
2023-04-25T12:42:11.970Z,506.25
2023-04-25T12:43:14.049Z,489.38
2023-04-25T12:44:11.603Z,478.12
2023-04-25T12:45:12.553Z,478.12
2023-04-25T12:46:11.573Z,489.38
2023-04-25T12:47:11.908Z,500.62
2023-04-25T12:48:11.610Z,517.50
2023-04-25T12:49:18.665Z,528.75
2023-04-25T12:50:12.568Z,523.12
2023-04-25T12:51:11.541Z,517.50
2023-04-25T12:52:11.510Z,500.62
2023-04-25T12:53:11.482Z,483.75
2023-04-25T12:54:11.486Z,438.75
2023-04-25T12:55:11.463Z,405.00
2023-04-25T12:56:11.515Z,371.25
2023-04-25T12:57:34.130Z,376.88
2023-04-25T12:58:22.890Z,483.75
2023-04-25T12:59:11.424Z,500.62
2023-04-25T13:00:23.510Z,506.25
2023-04-25T13:01:11.470Z,517.50
2023-04-25T13:02:12.383Z,523.12
2023-04-25T13:03:11.547Z,534.38
2023-04-25T13:04:11.431Z,545.62
2023-04-25T13:05:11.367Z,568.12
2023-04-25T13:06:11.341Z,613.12
2023-04-25T13:07:11.320Z,669.38
2023-04-25T13:08:33.168Z,725.62
2023-04-25T13:09:11.291Z,776.25
2023-04-25T13:10:11.759Z,787.50
2023-04-25T13:11:13.215Z,725.62
2023-04-25T13:12:15.600Z,663.75
2023-04-25T13:13:58.541Z,669.38
2023-04-25T13:14:19.032Z,686.25
2023-04-25T13:15:18.908Z,703.12
2023-04-25T13:16:16.259Z,663.75
2023-04-25T13:17:11.212Z,725.62